Niagara Falls International Airport
KIAG : now visible

Airfield :











YOU CAN JOIN US ON...

 
LOGIN :

Register | Disclaimer

   EN    FR    IT 

 









Legend :    VFR   Marginal VFR   IFR   Intensive IFR   Very Intensive IFR
Visi :
Ceiling :
>= 8 km
>= 3000ft
5 to 8 km
1000 to 3000 ft
1500m to 5 km
500 to 1000 ft
800 to 1500m
200 to 500 ft
< 800m
< 200 ft
Symbols :   Thunderstorms  Fog  Heavy snow  Heavy precipitations  Wind > 20 kt






- Airport Elevation : 589 ft
- IATA code : IAG


KIAG - Niagara Falls International

CURRENT METAR :
  • 271453Z 18011KT 10SM SCT055 BKN110 22/18 A2950 RMK AO2 RAE23 SLP985 P0000 60013 T02170183 58019

EXPIRED METARs :
  • 271407Z 16008KT 9SM -RA FEW036 BKN075 OVC110 20/18 A2952 RMK AO2 P0000 T02000178
  • 271400Z 17007KT 2 1/2SM R28R/4000VP6000FT -RA BR SCT038 BKN060 OVC110 20/18 A2952 RMK AO2 P0000 T02000178
  • 271353Z 17008KT 1SM R28R/4000VP6000FT +RA BR FEW028 BKN055 OVC070 19/17 A2953 RMK AO2 SLP996 P0002 T01940172
  • 271253Z 18010KT 3SM -RA BR FEW028 FEW035 OVC046 19/17 A2956 RMK AO2 RAB20 SLP006 P0011 T01940172
  • 271237Z 18008KT 3SM -RA FEW027 SCT038 OVC046 19/17 A2955 RMK AO2 RAB20 P0011 T01940167
  • 271230Z 18010KT 1SM R28R/3500VP6000FT RA SCT027 BKN038 OVC049 19/16 A2956 RMK AO2 RAB20 P0011 T01940161
  • 271153Z 18010KT 10SM SCT038 21/16 A2956 RMK AO2 SLP005 60006 70008 T02110156 10211 20194 58001
  • 271053Z 18012G19KT 10SM OVC031 21/16 A2957 RMK AO2 SLP010 T02110156

TAF KIAG
Valid from the 27 at 12:00 until the 28 at 12:00 UTC


271217Z 2712/2812 18012KT P6SM -SHRA OVC035
TEMPO 2712/2714 3SM RA BR BKN025
FM271600 21017G32KT P6SM OVC035
FM272100 23015G25KT P6SM BKN050
FM280400 24012G22KT P6SM BKN025
KZOB FIR / North America



MET'MAP, your aeronautical weather chart ! - Copyright ORBIFLY December 2007 - Disclaimer

ORBIFLY MET'MAP TEAM :

Programming & Development : Alexandra Zaïnal
Original concept : Baudouin d'Aumeries
Technical & hardware support : Manuel Goepfert
Assistance : Marc-Olivier Méhu




SOURCES & CREDITS :

   NOAA       Earth
Advisory